sensor_id;sensor_type;location;lat;lon;timestamp;P1;durP1;ratioP1;P2;durP2;ratioP2
80111;SDS011;69421;51.062;3.728;2023-06-14T00:02:33;7.90;;;3.20;;
80111;SDS011;69421;51.062;3.728;2023-06-14T00:05:22;5.25;;;3.17;;
80111;SDS011;69421;51.062;3.728;2023-06-14T00:08:12;5.10;;;3.08;;
80111;SDS011;69421;51.062;3.728;2023-06-14T00:13:54;6.38;;;2.90;;
80111;SDS011;69421;51.062;3.728;2023-06-14T00:16:21;6.72;;;3.22;;
80111;SDS011;69421;51.062;3.728;2023-06-14T00:19:03;5.07;;;3.40;;
80111;SDS011;69421;51.062;3.728;2023-06-14T00:21:39;5.72;;;3.28;;
80111;SDS011;69421;51.062;3.728;2023-06-14T00:24:18;6.63;;;3.47;;
80111;SDS011;69421;51.062;3.728;2023-06-14T00:26:46;6.93;;;3.47;;
80111;SDS011;69421;51.062;3.728;2023-06-14T00:29:23;5.35;;;3.33;;
80111;SDS011;69421;51.062;3.728;2023-06-14T00:31:57;5.93;;;3.47;;
80111;SDS011;69421;51.062;3.728;2023-06-14T00:34:42;5.55;;;3.50;;
80111;SDS011;69421;51.062;3.728;2023-06-14T00:40:07;5.15;;;3.10;;
80111;SDS011;69421;51.062;3.728;2023-06-14T00:42:44;10.85;;;3.70;;
80111;SDS011;69421;51.062;3.728;2023-06-14T00:45:20;5.88;;;3.83;;
80111;SDS011;69421;51.062;3.728;2023-06-14T00:48:19;6.72;;;4.38;;
80111;SDS011;69421;51.062;3.728;2023-06-14T00:51:05;4.95;;;3.63;;
80111;SDS011;69421;51.062;3.728;2023-06-14T00:53:40;6.50;;;3.75;;
80111;SDS011;69421;51.062;3.728;2023-06-14T00:56:12;5.15;;;3.45;;
80111;SDS011;69421;51.062;3.728;2023-06-14T00:58:39;7.93;;;4.70;;
80111;SDS011;69421;51.062;3.728;2023-06-14T01:01:13;11.32;;;3.97;;
80111;SDS011;69421;51.062;3.728;2023-06-14T01:03:41;5.40;;;3.83;;
80111;SDS011;69421;51.062;3.728;2023-06-14T01:06:40;5.88;;;4.00;;
80111;SDS011;69421;51.062;3.728;2023-06-14T01:11:54;5.38;;;4.35;;
80111;SDS011;69421;51.062;3.728;2023-06-14T01:14:32;7.15;;;3.95;;
80111;SDS011;69421;51.062;3.728;2023-06-14T01:17:01;4.85;;;4.20;;
80111;SDS011;69421;51.062;3.728;2023-06-14T01:19:30;9.82;;;3.90;;
80111;SDS011;69421;51.062;3.728;2023-06-14T01:22:00;5.82;;;4.43;;
80111;SDS011;69421;51.062;3.728;2023-06-14T01:24:36;5.82;;;4.30;;
80111;SDS011;69421;51.062;3.728;2023-06-14T01:27:37;9.50;;;4.78;;
80111;SDS011;69421;51.062;3.728;2023-06-14T01:30:22;7.88;;;4.50;;
80111;SDS011;69421;51.062;3.728;2023-06-14T01:32:58;5.57;;;4.40;;
80111;SDS011;69421;51.062;3.728;2023-06-14T01:35:24;7.97;;;4.20;;
80111;SDS011;69421;51.062;3.728;2023-06-14T01:37:55;6.32;;;4.70;;
80111;SDS011;69421;51.062;3.728;2023-06-14T01:40:21;9.70;;;4.53;;
80111;SDS011;69421;51.062;3.728;2023-06-14T01:42:50;6.47;;;4.78;;
80111;SDS011;69421;51.062;3.728;2023-06-14T01:45:18;5.30;;;4.32;;
80111;SDS011;69421;51.062;3.728;2023-06-14T01:48:28;8.65;;;5.07;;
80111;SDS011;69421;51.062;3.728;2023-06-14T01:51:00;9.00;;;4.70;;
80111;SDS011;69421;51.062;3.728;2023-06-14T01:54:00;7.40;;;4.78;;
80111;SDS011;69421;51.062;3.728;2023-06-14T01:56:52;7.57;;;4.57;;
80111;SDS011;69421;51.062;3.728;2023-06-14T02:02:23;7.70;;;4.13;;
80111;SDS011;69421;51.062;3.728;2023-06-14T02:07:40;6.38;;;4.50;;
80111;SDS011;69421;51.062;3.728;2023-06-14T02:10:16;6.15;;;4.55;;
80111;SDS011;69421;51.062;3.728;2023-06-14T02:12:53;8.38;;;4.18;;
80111;SDS011;69421;51.062;3.728;2023-06-14T02:15:38;7.75;;;4.90;;
80111;SDS011;69421;51.062;3.728;2023-06-14T02:18:27;6.30;;;5.18;;
80111;SDS011;69421;51.062;3.728;2023-06-14T02:21:05;8.07;;;5.65;;
80111;SDS011;69421;51.062;3.728;2023-06-14T02:23:39;7.18;;;4.85;;
80111;SDS011;69421;51.062;3.728;2023-06-14T02:28:46;6.45;;;4.65;;
80111;SDS011;69421;51.062;3.728;2023-06-14T02:31:19;8.45;;;4.97;;
80111;SDS011;69421;51.062;3.728;2023-06-14T02:34:13;6.25;;;4.72;;
80111;SDS011;69421;51.062;3.728;2023-06-14T02:37:07;7.00;;;4.43;;
80111;SDS011;69421;51.062;3.728;2023-06-14T02:40:13;8.40;;;4.53;;
80111;SDS011;69421;51.062;3.728;2023-06-14T02:42:48;9.23;;;5.50;;
80111;SDS011;69421;51.062;3.728;2023-06-14T02:45:43;7.05;;;4.75;;
80111;SDS011;69421;51.062;3.728;2023-06-14T02:48:22;6.95;;;4.68;;
80111;SDS011;69421;51.062;3.728;2023-06-14T02:51:00;5.63;;;4.18;;
80111;SDS011;69421;51.062;3.728;2023-06-14T02:53:35;6.53;;;4.80;;
80111;SDS011;69421;51.062;3.728;2023-06-14T02:56:34;9.32;;;5.70;;
80111;SDS011;69421;51.062;3.728;2023-06-14T02:59:35;6.72;;;5.63;;
80111;SDS011;69421;51.062;3.728;2023-06-14T03:02:13;10.27;;;5.82;;
80111;SDS011;69421;51.062;3.728;2023-06-14T03:04:57;8.25;;;5.22;;
80111;SDS011;69421;51.062;3.728;2023-06-14T03:07:34;7.03;;;5.18;;
80111;SDS011;69421;51.062;3.728;2023-06-14T03:10:09;8.25;;;5.50;;
80111;SDS011;69421;51.062;3.728;2023-06-14T03:12:50;7.57;;;5.95;;
80111;SDS011;69421;51.062;3.728;2023-06-14T03:15:38;9.35;;;4.35;;
80111;SDS011;69421;51.062;3.728;2023-06-14T03:18:23;6.63;;;4.70;;
80111;SDS011;69421;51.062;3.728;2023-06-14T03:21:20;7.03;;;4.85;;
80111;SDS011;69421;51.062;3.728;2023-06-14T03:24:06;7.45;;;5.15;;
80111;SDS011;69421;51.062;3.728;2023-06-14T03:26:44;7.53;;;5.05;;
80111;SDS011;69421;51.062;3.728;2023-06-14T03:29:15;8.35;;;5.70;;
80111;SDS011;69421;51.062;3.728;2023-06-14T03:31:55;6.65;;;4.32;;
80111;SDS011;69421;51.062;3.728;2023-06-14T03:34:30;8.07;;;5.07;;
80111;SDS011;69421;51.062;3.728;2023-06-14T03:37:14;7.43;;;4.47;;
80111;SDS011;69421;51.062;3.728;2023-06-14T03:39:52;8.45;;;4.53;;
80111;SDS011;69421;51.062;3.728;2023-06-14T03:42:20;6.72;;;4.70;;
80111;SDS011;69421;51.062;3.728;2023-06-14T03:45:02;7.57;;;4.45;;
80111;SDS011;69421;51.062;3.728;2023-06-14T03:47:58;9.32;;;4.30;;
80111;SDS011;69421;51.062;3.728;2023-06-14T03:50:36;7.78;;;4.63;;
80111;SDS011;69421;51.062;3.728;2023-06-14T03:53:10;7.45;;;5.10;;
80111;SDS011;69421;51.062;3.728;2023-06-14T03:55:46;6.47;;;4.90;;
80111;SDS011;69421;51.062;3.728;2023-06-14T03:58:24;6.07;;;4.55;;
80111;SDS011;69421;51.062;3.728;2023-06-14T04:01:07;8.05;;;4.38;;
80111;SDS011;69421;51.062;3.728;2023-06-14T04:03:41;5.43;;;4.60;;
80111;SDS011;69421;51.062;3.728;2023-06-14T04:09:08;6.68;;;4.57;;
80111;SDS011;69421;51.062;3.728;2023-06-14T04:11:42;10.45;;;4.57;;
80111;SDS011;69421;51.062;3.728;2023-06-14T04:14:13;6.38;;;4.70;;
80111;SDS011;69421;51.062;3.728;2023-06-14T04:16:41;5.68;;;4.57;;
80111;SDS011;69421;51.062;3.728;2023-06-14T04:19:19;7.10;;;4.63;;
80111;SDS011;69421;51.062;3.728;2023-06-14T04:21:59;8.90;;;4.85;;
80111;SDS011;69421;51.062;3.728;2023-06-14T04:24:40;6.53;;;4.50;;
80111;SDS011;69421;51.062;3.728;2023-06-14T04:27:17;5.60;;;4.35;;
80111;SDS011;69421;51.062;3.728;2023-06-14T04:30:08;8.88;;;3.83;;
80111;SDS011;69421;51.062;3.728;2023-06-14T04:32:52;7.00;;;3.72;;
80111;SDS011;69421;51.062;3.728;2023-06-14T04:35:23;7.70;;;5.10;;
80111;SDS011;69421;51.062;3.728;2023-06-14T04:37:53;8.32;;;4.70;;
80111;SDS011;69421;51.062;3.728;2023-06-14T04:40:35;8.10;;;4.47;;
80111;SDS011;69421;51.062;3.728;2023-06-14T04:43:11;7.85;;;4.45;;
80111;SDS011;69421;51.062;3.728;2023-06-14T04:45:47;8.07;;;4.75;;
80111;SDS011;69421;51.062;3.728;2023-06-14T04:48:39;6.75;;;4.70;;
80111;SDS011;69421;51.062;3.728;2023-06-14T04:51:21;8.63;;;5.30;;
80111;SDS011;69421;51.062;3.728;2023-06-14T04:53:55;9.70;;;4.85;;
80111;SDS011;69421;51.062;3.728;2023-06-14T04:56:35;7.57;;;4.38;;
80111;SDS011;69421;51.062;3.728;2023-06-14T04:59:03;9.35;;;4.72;;
80111;SDS011;69421;51.062;3.728;2023-06-14T05:01:39;9.02;;;5.03;;
80111;SDS011;69421;51.062;3.728;2023-06-14T05:04:28;8.93;;;4.32;;
80111;SDS011;69421;51.062;3.728;2023-06-14T05:06:56;7.78;;;5.03;;
80111;SDS011;69421;51.062;3.728;2023-06-14T05:09:31;6.28;;;4.15;;
80111;SDS011;69421;51.062;3.728;2023-06-14T05:11:59;9.50;;;4.82;;
80111;SDS011;69421;51.062;3.728;2023-06-14T05:14:30;8.48;;;4.93;;
80111;SDS011;69421;51.062;3.728;2023-06-14T05:16:58;9.15;;;5.13;;
80111;SDS011;69421;51.062;3.728;2023-06-14T05:19:34;7.97;;;5.65;;
80111;SDS011;69421;51.062;3.728;2023-06-14T05:22:03;7.60;;;4.70;;
80111;SDS011;69421;51.062;3.728;2023-06-14T05:27:00;8.45;;;4.68;;
80111;SDS011;69421;51.062;3.728;2023-06-14T05:29:35;9.88;;;4.93;;
80111;SDS011;69421;51.062;3.728;2023-06-14T05:32:31;8.10;;;5.05;;
80111;SDS011;69421;51.062;3.728;2023-06-14T05:35:01;7.00;;;5.75;;
80111;SDS011;69421;51.062;3.728;2023-06-14T05:37:30;10.30;;;6.05;;
80111;SDS011;69421;51.062;3.728;2023-06-14T05:40:05;7.88;;;5.18;;
80111;SDS011;69421;51.062;3.728;2023-06-14T05:42:42;7.70;;;4.78;;
80111;SDS011;69421;51.062;3.728;2023-06-14T05:45:09;8.32;;;5.38;;
80111;SDS011;69421;51.062;3.728;2023-06-14T05:47:35;18.85;;;5.75;;
80111;SDS011;69421;51.062;3.728;2023-06-14T05:50:03;9.43;;;5.45;;
80111;SDS011;69421;51.062;3.728;2023-06-14T05:52:34;8.68;;;5.18;;
80111;SDS011;69421;51.062;3.728;2023-06-14T05:55:04;8.80;;;5.18;;
80111;SDS011;69421;51.062;3.728;2023-06-14T05:57:34;5.70;;;4.80;;
80111;SDS011;69421;51.062;3.728;2023-06-14T06:00:13;7.72;;;5.45;;
80111;SDS011;69421;51.062;3.728;2023-06-14T06:02:42;7.13;;;5.07;;
80111;SDS011;69421;51.062;3.728;2023-06-14T06:05:35;8.35;;;5.45;;
80111;SDS011;69421;51.062;3.728;2023-06-14T06:08:03;8.32;;;4.90;;
80111;SDS011;69421;51.062;3.728;2023-06-14T06:10:59;11.15;;;5.18;;
80111;SDS011;69421;51.062;3.728;2023-06-14T06:13:28;10.13;;;4.85;;
80111;SDS011;69421;51.062;3.728;2023-06-14T06:16:03;7.20;;;4.63;;
80111;SDS011;69421;51.062;3.728;2023-06-14T06:18:32;6.22;;;5.07;;
80111;SDS011;69421;51.062;3.728;2023-06-14T06:21:10;8.27;;;5.50;;
80111;SDS011;69421;51.062;3.728;2023-06-14T06:23:41;8.75;;;5.35;;
80111;SDS011;69421;51.062;3.728;2023-06-14T06:26:06;7.20;;;4.97;;
80111;SDS011;69421;51.062;3.728;2023-06-14T06:28:32;11.38;;;5.55;;
80111;SDS011;69421;51.062;3.728;2023-06-14T06:31:08;8.25;;;4.70;;
80111;SDS011;69421;51.062;3.728;2023-06-14T06:33:38;6.72;;;4.85;;
80111;SDS011;69421;51.062;3.728;2023-06-14T06:36:13;9.65;;;5.70;;
80111;SDS011;69421;51.062;3.728;2023-06-14T06:38:44;9.02;;;5.25;;
80111;SDS011;69421;51.062;3.728;2023-06-14T06:41:12;7.18;;;4.85;;
80111;SDS011;69421;51.062;3.728;2023-06-14T06:43:45;9.77;;;5.32;;
80111;SDS011;69421;51.062;3.728;2023-06-14T06:46:14;7.85;;;4.75;;
80111;SDS011;69421;51.062;3.728;2023-06-14T06:48:40;11.10;;;4.93;;
80111;SDS011;69421;51.062;3.728;2023-06-14T06:51:09;9.05;;;5.00;;
80111;SDS011;69421;51.062;3.728;2023-06-14T06:53:54;7.10;;;4.78;;
80111;SDS011;69421;51.062;3.728;2023-06-14T06:56:28;9.65;;;5.82;;
80111;SDS011;69421;51.062;3.728;2023-06-14T06:59:03;9.60;;;5.38;;
80111;SDS011;69421;51.062;3.728;2023-06-14T07:01:51;9.18;;;5.07;;
80111;SDS011;69421;51.062;3.728;2023-06-14T07:07:30;7.07;;;5.28;;
80111;SDS011;69421;51.062;3.728;2023-06-14T07:10:00;7.95;;;5.78;;
80111;SDS011;69421;51.062;3.728;2023-06-14T07:12:28;10.75;;;5.80;;
80111;SDS011;69421;51.062;3.728;2023-06-14T07:15:16;9.93;;;4.93;;
80111;SDS011;69421;51.062;3.728;2023-06-14T07:17:51;9.20;;;4.72;;
80111;SDS011;69421;51.062;3.728;2023-06-14T07:20:34;12.07;;;5.43;;
80111;SDS011;69421;51.062;3.728;2023-06-14T07:23:05;7.07;;;5.10;;
80111;SDS011;69421;51.062;3.728;2023-06-14T07:25:56;5.75;;;4.70;;
80111;SDS011;69421;51.062;3.728;2023-06-14T07:28:42;6.25;;;5.18;;
80111;SDS011;69421;51.062;3.728;2023-06-14T07:31:10;8.02;;;4.57;;
80111;SDS011;69421;51.062;3.728;2023-06-14T07:33:46;9.75;;;5.43;;
80111;SDS011;69421;51.062;3.728;2023-06-14T07:36:22;8.25;;;4.95;;
80111;SDS011;69421;51.062;3.728;2023-06-14T07:38:47;7.30;;;4.72;;
80111;SDS011;69421;51.062;3.728;2023-06-14T07:41:34;9.20;;;5.80;;
80111;SDS011;69421;51.062;3.728;2023-06-14T07:47:15;10.10;;;5.38;;
80111;SDS011;69421;51.062;3.728;2023-06-14T07:50:05;12.15;;;5.72;;
80111;SDS011;69421;51.062;3.728;2023-06-14T07:55:55;7.30;;;4.40;;
80111;SDS011;69421;51.062;3.728;2023-06-14T08:04:52;7.32;;;6.13;;
80111;SDS011;69421;51.062;3.728;2023-06-14T08:07:31;9.25;;;5.03;;
80111;SDS011;69421;51.062;3.728;2023-06-14T08:10:08;6.68;;;4.78;;
80111;SDS011;69421;51.062;3.728;2023-06-14T08:12:39;9.70;;;5.38;;
80111;SDS011;69421;51.062;3.728;2023-06-14T08:15:07;12.38;;;6.43;;
80111;SDS011;69421;51.062;3.728;2023-06-14T08:20:27;9.05;;;6.32;;
80111;SDS011;69421;51.062;3.728;2023-06-14T08:25:24;8.23;;;4.57;;
80111;SDS011;69421;51.062;3.728;2023-06-14T08:28:35;9.35;;;6.10;;
80111;SDS011;69421;51.062;3.728;2023-06-14T08:31:21;6.97;;;5.47;;
80111;SDS011;69421;51.062;3.728;2023-06-14T08:34:24;9.50;;;5.38;;
80111;SDS011;69421;51.062;3.728;2023-06-14T08:37:06;8.13;;;4.85;;
80111;SDS011;69421;51.062;3.728;2023-06-14T08:39:37;6.85;;;4.90;;
80111;SDS011;69421;51.062;3.728;2023-06-14T08:42:19;8.55;;;5.78;;
80111;SDS011;69421;51.062;3.728;2023-06-14T08:44:56;6.65;;;5.40;;
80111;SDS011;69421;51.062;3.728;2023-06-14T08:51:15;11.68;;;5.20;;
80111;SDS011;69421;51.062;3.728;2023-06-14T08:54:09;7.82;;;4.88;;
80111;SDS011;69421;51.062;3.728;2023-06-14T08:56:55;6.45;;;5.10;;
80111;SDS011;69421;51.062;3.728;2023-06-14T08:59:34;7.25;;;5.40;;
80111;SDS011;69421;51.062;3.728;2023-06-14T09:02:30;6.72;;;4.80;;
80111;SDS011;69421;51.062;3.728;2023-06-14T09:05:27;6.28;;;4.57;;
80111;SDS011;69421;51.062;3.728;2023-06-14T09:08:53;5.85;;;4.63;;
80111;SDS011;69421;51.062;3.728;2023-06-14T09:11:35;5.85;;;4.88;;
80111;SDS011;69421;51.062;3.728;2023-06-14T09:14:09;7.60;;;4.30;;
80111;SDS011;69421;51.062;3.728;2023-06-14T09:16:38;5.40;;;4.57;;
80111;SDS011;69421;51.062;3.728;2023-06-14T09:19:22;7.00;;;4.82;;
80111;SDS011;69421;51.062;3.728;2023-06-14T09:21:55;7.45;;;4.78;;
80111;SDS011;69421;51.062;3.728;2023-06-14T09:24:24;7.32;;;4.75;;
80111;SDS011;69421;51.062;3.728;2023-06-14T09:27:06;7.82;;;5.35;;
80111;SDS011;69421;51.062;3.728;2023-06-14T09:29:55;7.38;;;4.75;;
80111;SDS011;69421;51.062;3.728;2023-06-14T09:32:36;7.60;;;4.85;;
80111;SDS011;69421;51.062;3.728;2023-06-14T09:36:03;7.80;;;5.22;;
80111;SDS011;69421;51.062;3.728;2023-06-14T09:38:31;6.45;;;4.70;;
80111;SDS011;69421;51.062;3.728;2023-06-14T09:44:21;9.20;;;4.65;;
80111;SDS011;69421;51.062;3.728;2023-06-14T09:46:50;7.95;;;4.75;;
80111;SDS011;69421;51.062;3.728;2023-06-14T09:49:22;6.55;;;4.40;;
80111;SDS011;69421;51.062;3.728;2023-06-14T09:52:00;8.60;;;4.60;;
80111;SDS011;69421;51.062;3.728;2023-06-14T09:54:36;5.43;;;3.65;;
80111;SDS011;69421;51.062;3.728;2023-06-14T09:57:13;7.60;;;4.07;;
80111;SDS011;69421;51.062;3.728;2023-06-14T10:02:48;6.20;;;4.00;;
80111;SDS011;69421;51.062;3.728;2023-06-14T10:05:34;5.13;;;3.70;;
80111;SDS011;69421;51.062;3.728;2023-06-14T10:08:31;4.35;;;3.42;;
80111;SDS011;69421;51.062;3.728;2023-06-14T10:11:08;6.57;;;4.10;;
80111;SDS011;69421;51.062;3.728;2023-06-14T10:13:36;5.20;;;4.00;;
80111;SDS011;69421;51.062;3.728;2023-06-14T10:16:15;4.22;;;3.83;;
80111;SDS011;69421;51.062;3.728;2023-06-14T10:22:18;5.15;;;3.60;;
80111;SDS011;69421;51.062;3.728;2023-06-14T10:24:55;4.55;;;3.75;;
80111;SDS011;69421;51.062;3.728;2023-06-14T10:27:38;5.25;;;4.25;;
80111;SDS011;69421;51.062;3.728;2023-06-14T10:30:05;4.65;;;4.20;;
80111;SDS011;69421;51.062;3.728;2023-06-14T10:32:35;6.03;;;4.05;;
80111;SDS011;69421;51.062;3.728;2023-06-14T10:35:48;6.65;;;4.70;;
80111;SDS011;69421;51.062;3.728;2023-06-14T10:38:16;6.57;;;5.18;;
80111;SDS011;69421;51.062;3.728;2023-06-14T10:41:04;4.72;;;3.67;;
80111;SDS011;69421;51.062;3.728;2023-06-14T10:43:32;5.72;;;4.25;;
80111;SDS011;69421;51.062;3.728;2023-06-14T10:46:20;6.38;;;4.22;;
80111;SDS011;69421;51.062;3.728;2023-06-14T10:48:53;7.88;;;4.40;;
80111;SDS011;69421;51.062;3.728;2023-06-14T10:51:55;6.82;;;3.92;;
80111;SDS011;69421;51.062;3.728;2023-06-14T10:54:24;8.13;;;3.22;;
80111;SDS011;69421;51.062;3.728;2023-06-14T10:57:06;4.30;;;3.78;;
80111;SDS011;69421;51.062;3.728;2023-06-14T10:59:41;5.85;;;4.35;;
80111;SDS011;69421;51.062;3.728;2023-06-14T11:02:48;7.72;;;4.13;;
80111;SDS011;69421;51.062;3.728;2023-06-14T11:12:13;6.53;;;4.15;;
80111;SDS011;69421;51.062;3.728;2023-06-14T11:15:27;11.57;;;4.32;;
80111;SDS011;69421;51.062;3.728;2023-06-14T11:22:09;6.70;;;4.35;;
80111;SDS011;69421;51.062;3.728;2023-06-14T11:24:44;6.68;;;3.65;;
80111;SDS011;69421;51.062;3.728;2023-06-14T11:27:54;7.05;;;4.55;;
80111;SDS011;69421;51.062;3.728;2023-06-14T11:33:38;5.88;;;4.35;;
80111;SDS011;69421;51.062;3.728;2023-06-14T11:36:18;6.70;;;4.57;;
80111;SDS011;69421;51.062;3.728;2023-06-14T11:45:21;4.80;;;4.10;;
80111;SDS011;69421;51.062;3.728;2023-06-14T11:51:46;7.45;;;4.50;;
80111;SDS011;69421;51.062;3.728;2023-06-14T11:54:40;5.35;;;3.97;;
80111;SDS011;69421;51.062;3.728;2023-06-14T11:57:28;6.78;;;3.72;;
80111;SDS011;69421;51.062;3.728;2023-06-14T12:03:09;6.78;;;4.13;;
80111;SDS011;69421;51.062;3.728;2023-06-14T12:06:01;6.70;;;4.57;;
80111;SDS011;69421;51.062;3.728;2023-06-14T12:09:07;5.40;;;4.07;;
80111;SDS011;69421;51.062;3.728;2023-06-14T12:11:42;7.18;;;4.10;;
80111;SDS011;69421;51.062;3.728;2023-06-14T12:14:37;4.10;;;3.42;;
80111;SDS011;69421;51.062;3.728;2023-06-14T12:20:59;5.30;;;3.70;;
80111;SDS011;69421;51.062;3.728;2023-06-14T12:23:50;5.15;;;4.47;;
80111;SDS011;69421;51.062;3.728;2023-06-14T12:27:06;5.15;;;4.05;;
80111;SDS011;69421;51.062;3.728;2023-06-14T12:33:30;5.22;;;3.53;;
80111;SDS011;69421;51.062;3.728;2023-06-14T12:36:34;6.03;;;4.32;;
80111;SDS011;69421;51.062;3.728;2023-06-14T12:39:20;5.18;;;4.03;;
80111;SDS011;69421;51.062;3.728;2023-06-14T12:42:15;5.70;;;4.47;;
80111;SDS011;69421;51.062;3.728;2023-06-14T12:45:10;5.20;;;4.05;;
80111;SDS011;69421;51.062;3.728;2023-06-14T12:47:43;7.75;;;4.30;;
80111;SDS011;69421;51.062;3.728;2023-06-14T12:50:09;10.77;;;4.75;;
80111;SDS011;69421;51.062;3.728;2023-06-14T12:52:34;6.55;;;4.30;;
80111;SDS011;69421;51.062;3.728;2023-06-14T12:55:06;7.13;;;4.35;;
80111;SDS011;69421;51.062;3.728;2023-06-14T12:58:01;5.85;;;4.25;;
80111;SDS011;69421;51.062;3.728;2023-06-14T13:00:55;7.38;;;3.92;;
80111;SDS011;69421;51.062;3.728;2023-06-14T13:03:57;7.88;;;4.07;;
80111;SDS011;69421;51.062;3.728;2023-06-14T13:06:57;5.97;;;3.65;;
80111;SDS011;69421;51.062;3.728;2023-06-14T13:09:23;4.70;;;4.20;;
80111;SDS011;69421;51.062;3.728;2023-06-14T13:11:54;8.02;;;4.00;;
80111;SDS011;69421;51.062;3.728;2023-06-14T13:14:30;6.32;;;4.07;;
80111;SDS011;69421;51.062;3.728;2023-06-14T13:17:04;7.85;;;4.13;;
80111;SDS011;69421;51.062;3.728;2023-06-14T13:19:33;5.43;;;3.80;;
80111;SDS011;69421;51.062;3.728;2023-06-14T13:24:40;4.97;;;3.70;;
80111;SDS011;69421;51.062;3.728;2023-06-14T13:27:08;7.15;;;4.18;;
80111;SDS011;69421;51.062;3.728;2023-06-14T13:29:38;5.18;;;3.60;;
80111;SDS011;69421;51.062;3.728;2023-06-14T13:32:10;5.80;;;3.95;;
80111;SDS011;69421;51.062;3.728;2023-06-14T13:34:41;5.05;;;3.67;;
80111;SDS011;69421;51.062;3.728;2023-06-14T13:37:27;6.88;;;4.53;;
80111;SDS011;69421;51.062;3.728;2023-06-14T13:39:53;6.60;;;4.07;;
80111;SDS011;69421;51.062;3.728;2023-06-14T13:42:28;7.60;;;3.45;;
80111;SDS011;69421;51.062;3.728;2023-06-14T13:44:56;6.47;;;4.20;;
80111;SDS011;69421;51.062;3.728;2023-06-14T13:49:51;6.20;;;3.58;;
80111;SDS011;69421;51.062;3.728;2023-06-14T13:52:17;5.70;;;3.92;;
80111;SDS011;69421;51.062;3.728;2023-06-14T13:54:43;5.05;;;3.45;;
80111;SDS011;69421;51.062;3.728;2023-06-14T13:57:14;6.63;;;4.07;;
80111;SDS011;69421;51.062;3.728;2023-06-14T13:59:43;4.70;;;3.90;;
80111;SDS011;69421;51.062;3.728;2023-06-14T14:02:09;6.53;;;4.13;;
80111;SDS011;69421;51.062;3.728;2023-06-14T14:04:36;6.57;;;4.00;;
80111;SDS011;69421;51.062;3.728;2023-06-14T14:07:05;7.05;;;3.92;;
80111;SDS011;69421;51.062;3.728;2023-06-14T14:09:47;6.18;;;2.97;;
80111;SDS011;69421;51.062;3.728;2023-06-14T14:12:15;5.40;;;2.75;;
80111;SDS011;69421;51.062;3.728;2023-06-14T14:14:43;5.57;;;3.50;;
80111;SDS011;69421;51.062;3.728;2023-06-14T14:17:15;5.85;;;3.20;;
80111;SDS011;69421;51.062;3.728;2023-06-14T14:19:41;5.75;;;3.53;;
80111;SDS011;69421;51.062;3.728;2023-06-14T14:22:09;6.55;;;2.95;;
80111;SDS011;69421;51.062;3.728;2023-06-14T14:24:50;8.32;;;3.10;;
80111;SDS011;69421;51.062;3.728;2023-06-14T14:27:36;8.60;;;4.45;;
80111;SDS011;69421;51.062;3.728;2023-06-14T14:30:02;3.88;;;3.33;;
80111;SDS011;69421;51.062;3.728;2023-06-14T14:32:29;5.43;;;2.92;;
80111;SDS011;69421;51.062;3.728;2023-06-14T14:34:57;5.28;;;2.78;;
80111;SDS011;69421;51.062;3.728;2023-06-14T14:39:53;4.35;;;2.67;;
80111;SDS011;69421;51.062;3.728;2023-06-14T14:42:19;5.10;;;2.63;;
80111;SDS011;69421;51.062;3.728;2023-06-14T14:44:53;5.13;;;2.92;;
80111;SDS011;69421;51.062;3.728;2023-06-14T14:47:21;9.48;;;3.25;;
80111;SDS011;69421;51.062;3.728;2023-06-14T14:49:47;4.53;;;2.80;;
80111;SDS011;69421;51.062;3.728;2023-06-14T14:52:23;3.92;;;2.28;;
80111;SDS011;69421;51.062;3.728;2023-06-14T14:54:58;6.40;;;2.65;;
80111;SDS011;69421;51.062;3.728;2023-06-14T14:57:27;5.07;;;2.25;;
80111;SDS011;69421;51.062;3.728;2023-06-14T14:59:53;3.67;;;2.58;;
80111;SDS011;69421;51.062;3.728;2023-06-14T15:02:23;4.50;;;2.45;;
80111;SDS011;69421;51.062;3.728;2023-06-14T15:04:49;5.32;;;2.55;;
80111;SDS011;69421;51.062;3.728;2023-06-14T15:07:26;3.67;;;2.17;;
80111;SDS011;69421;51.062;3.728;2023-06-14T15:09:59;5.40;;;1.80;;
80111;SDS011;69421;51.062;3.728;2023-06-14T15:12:38;5.10;;;2.53;;
80111;SDS011;69421;51.062;3.728;2023-06-14T15:15:06;4.00;;;2.17;;
80111;SDS011;69421;51.062;3.728;2023-06-14T15:17:45;3.13;;;2.00;;
80111;SDS011;69421;51.062;3.728;2023-06-14T15:20:13;4.50;;;1.63;;
80111;SDS011;69421;51.062;3.728;2023-06-14T15:22:47;5.38;;;1.30;;
80111;SDS011;69421;51.062;3.728;2023-06-14T15:25:28;1.70;;;1.40;;
80111;SDS011;69421;51.062;3.728;2023-06-14T15:28:03;3.95;;;1.20;;
80111;SDS011;69421;51.062;3.728;2023-06-14T15:30:34;3.70;;;1.08;;
80111;SDS011;69421;51.062;3.728;2023-06-14T15:33:00;2.45;;;1.50;;
80111;SDS011;69421;51.062;3.728;2023-06-14T15:35:54;4.00;;;1.20;;
80111;SDS011;69421;51.062;3.728;2023-06-14T15:38:25;2.33;;;1.10;;
80111;SDS011;69421;51.062;3.728;2023-06-14T15:40:53;1.77;;;0.95;;
80111;SDS011;69421;51.062;3.728;2023-06-14T15:43:37;3.30;;;0.90;;
80111;SDS011;69421;51.062;3.728;2023-06-14T15:46:05;2.78;;;0.90;;
80111;SDS011;69421;51.062;3.728;2023-06-14T15:48:45;7.97;;;1.27;;
80111;SDS011;69421;51.062;3.728;2023-06-14T15:51:13;2.72;;;1.10;;
80111;SDS011;69421;51.062;3.728;2023-06-14T15:53:49;3.45;;;0.80;;
80111;SDS011;69421;51.062;3.728;2023-06-14T15:56:31;1.83;;;0.82;;
80111;SDS011;69421;51.062;3.728;2023-06-14T15:59:00;3.70;;;1.10;;
80111;SDS011;69421;51.062;3.728;2023-06-14T16:01:53;3.53;;;1.33;;
80111;SDS011;69421;51.062;3.728;2023-06-14T16:04:22;2.25;;;0.93;;
80111;SDS011;69421;51.062;3.728;2023-06-14T16:06:53;1.77;;;1.00;;
80111;SDS011;69421;51.062;3.728;2023-06-14T16:09:18;3.50;;;1.35;;
80111;SDS011;69421;51.062;3.728;2023-06-14T16:11:44;5.07;;;2.85;;
80111;SDS011;69421;51.062;3.728;2023-06-14T16:14:17;3.55;;;1.50;;
80111;SDS011;69421;51.062;3.728;2023-06-14T16:16:48;4.32;;;1.13;;
80111;SDS011;69421;51.062;3.728;2023-06-14T16:19:40;5.80;;;1.10;;
80111;SDS011;69421;51.062;3.728;2023-06-14T16:22:08;3.58;;;0.75;;
80111;SDS011;69421;51.062;3.728;2023-06-14T16:24:37;3.08;;;1.38;;
80111;SDS011;69421;51.062;3.728;2023-06-14T16:29:56;3.88;;;1.30;;
80111;SDS011;69421;51.062;3.728;2023-06-14T16:32:24;5.90;;;1.27;;
80111;SDS011;69421;51.062;3.728;2023-06-14T16:34:52;3.72;;;1.30;;
80111;SDS011;69421;51.062;3.728;2023-06-14T16:37:18;3.38;;;1.20;;
80111;SDS011;69421;51.062;3.728;2023-06-14T16:39:49;4.13;;;2.13;;
80111;SDS011;69421;51.062;3.728;2023-06-14T16:42:29;5.32;;;1.70;;
80111;SDS011;69421;51.062;3.728;2023-06-14T16:45:05;5.15;;;1.92;;
80111;SDS011;69421;51.062;3.728;2023-06-14T16:47:55;7.80;;;3.08;;
80111;SDS011;69421;51.062;3.728;2023-06-14T16:50:20;3.38;;;1.00;;
80111;SDS011;69421;51.062;3.728;2023-06-14T16:52:46;3.78;;;1.02;;
80111;SDS011;69421;51.062;3.728;2023-06-14T16:55:14;2.70;;;0.70;;
80111;SDS011;69421;51.062;3.728;2023-06-14T16:57:52;3.03;;;1.00;;
80111;SDS011;69421;51.062;3.728;2023-06-14T17:00:23;3.05;;;1.45;;
80111;SDS011;69421;51.062;3.728;2023-06-14T17:02:52;4.38;;;1.00;;
80111;SDS011;69421;51.062;3.728;2023-06-14T17:05:22;5.57;;;1.73;;
80111;SDS011;69421;51.062;3.728;2023-06-14T17:07:57;6.15;;;1.50;;
80111;SDS011;69421;51.062;3.728;2023-06-14T17:10:42;4.75;;;1.13;;
80111;SDS011;69421;51.062;3.728;2023-06-14T17:13:30;5.18;;;1.20;;
80111;SDS011;69421;51.062;3.728;2023-06-14T17:16:05;4.65;;;1.40;;
80111;SDS011;69421;51.062;3.728;2023-06-14T17:21:31;2.60;;;1.25;;
80111;SDS011;69421;51.062;3.728;2023-06-14T17:24:04;4.57;;;1.58;;
80111;SDS011;69421;51.062;3.728;2023-06-14T17:26:46;2.10;;;1.27;;
80111;SDS011;69421;51.062;3.728;2023-06-14T17:29:15;4.70;;;1.10;;
80111;SDS011;69421;51.062;3.728;2023-06-14T17:31:40;3.33;;;1.77;;
80111;SDS011;69421;51.062;3.728;2023-06-14T17:34:16;3.85;;;1.05;;
80111;SDS011;69421;51.062;3.728;2023-06-14T17:36:53;2.80;;;1.48;;